Time;durP1;ratioP1;P1;durP2;ratioP2;P2;SDS_P1;SDS_P2;PMS_P1;PMS_P2;Temp;Humidity;BMP_temperature;BMP_pressure;BME280_temperature;BME280_humidity;BME280_pressure;Samples;Min_cycle;Max_cycle;Signal;HPM_P1;HPM_P2
2021/12/24 07:17:30;;;;;;;;;16.25;13.00;;;;;10.86;73.69;100525.09;5100697;22;46314;-86
2021/12/24 07:20:08;;;;;;;;;12.00;11.50;;;;;10.81;73.60;100503.19;5061326;28;45360;-84
2021/12/24 07:23:45;;;;;;;;;;;;;;;;;;;;;
2021/12/24 07:29:55;;;;;;;;;;;;;;;;;;;;;
2021/12/24 07:37:29;;;;;;;;;;;;;;;;;;;;;
2021/12/24 07:40:12;;;;;;;;;6.00;6.00;;;;;10.93;73.91;100520.63;4983377;28;45291;-87
2021/12/24 07:42:59;;;;;;;;;10.00;8.50;;;;;10.93;73.84;100513.63;4971998;28;45402;-87
2021/12/24 07:56:30;;;;;;;;;9.50;9.50;;;;;11.00;73.91;100514.44;4859809;29;45307;-86
2021/12/24 08:02:41;;;;;;;;;10.00;9.50;;;;;10.87;73.81;100474.16;4888335;28;45457;-88
2021/12/24 08:05:32;;;;;;;;;7.25;7.00;;;;;10.98;74.09;100484.59;4985712;28;45492;-86
2021/12/24 08:08:17;;;;;;;;;;;;;;;;;;;;;
2021/12/24 08:11:08;;;;;;;;;9.00;9.00;;;;;10.92;74.13;100480.25;5049613;28;72884;-87
2021/12/24 08:17:17;;;;;;;;;7.75;5.75;;;;;11.06;74.05;100487.16;5029841;28;45352;-85
2021/12/24 08:20:53;;;;;;;;;;;;;;;;;;;;;
2021/12/24 08:31:13;;;;;;;;;;;;;;;;;;;;;
2021/12/24 08:34:34;;;;;;;;;11.50;8.00;;;;;11.01;74.27;100474.00;4906675;28;69084;-86
2021/12/24 08:37:36;;;;;;;;;7.25;5.75;;;;;11.03;74.01;100480.16;4787053;29;45535;-85
2021/12/24 08:40:28;;;;;;;;;8.75;7.75;;;;;11.09;74.30;100484.47;4843764;29;47164;-86
2021/12/24 10:10:07;;;;;;;;;;;;;;;;;;;;;
2021/12/24 11:40:36;;;;;;;;;;;;;;;;;;;;;
2021/12/24 17:14:55;;;;;;;;;;;;;;;;;;;;;
2021/12/24 17:20:59;;;;;;;;;31.50;24.00;;;;;11.54;74.45;100187.84;4993586;28;46193;-84
2021/12/24 17:27:17;;;;;;;;;29.00;24.00;;;;;11.56;74.25;100187.81;4975435;28;45567;-86
2021/12/24 17:48:32;;;;;;;;;118.00;103.33;;;;;11.57;74.27;100160.56;5062958;28;45688;-86
2021/12/24 17:51:12;;;;;;;;;37.75;30.75;;;;;11.64;74.20;100178.88;5058245;27;45582;-87
2021/12/24 18:03:29;;;;;;;;;;;;;;;;;;;;;
2021/12/24 18:06:18;;;;;;;;;32.00;30.00;;;;;11.64;74.18;100172.75;4974321;28;73777;-82
2021/12/24 18:16:19;;;;;;;;;32.50;29.50;;;;;11.59;74.08;100169.31;4986950;28;45457;-90
2021/12/24 18:19:22;;;;;;;;;36.50;30.75;;;;;11.55;74.33;100146.56;5039862;28;45572;-86
2021/12/24 18:22:44;;;;;;;;;37.75;32.25;;;;;11.60;74.35;100149.94;4932727;28;46613;-88
2021/12/24 18:25:13;;;;;;;;;32.75;31.00;;;;;11.68;74.26;100166.50;4914527;28;45638;-87
2021/12/24 18:28:01;;;;;;;;;28.50;26.50;;;;;11.68;74.39;100155.97;5056474;28;45439;-90
2021/12/24 18:30:59;;;;;;;;;;;;;;;;;;;;;
2021/12/24 18:34:16;;;;;;;;;37.00;31.50;;;;;11.65;74.43;100156.03;4984683;28;74797;-90
2021/12/24 18:44:26;;;;;;;;;40.25;36.00;;;;;11.71;74.59;100132.19;4828493;29;45549;-88
2021/12/24 19:14:57;;;;;;;;;28.75;28.00;;;;;11.54;75.86;100136.88;5652041;22;46690;-90
2021/12/24 19:17:23;;;;;;;;;38.75;34.00;;;;;11.47;75.81;100121.19;5069845;28;45536;-87
2021/12/24 19:19:48;;;;;;;;;37.00;28.25;;;;;11.56;75.66;100127.19;5061613;28;45485;-88
2021/12/24 19:22:13;;;;;;;;;36.50;31.25;;;;;11.60;75.77;100135.03;5082157;28;46244;-90
2021/12/24 19:24:44;;;;;;;;;32.25;29.50;;;;;11.61;75.68;100128.84;5067782;28;45617;-87
2021/12/24 19:27:49;;;;;;;;;;;;;;;;;;;;;
2021/12/24 19:30:43;;;;;;;;;28.00;25.25;;;;;11.62;75.52;100127.94;5063928;28;73304;-90
2021/12/24 19:33:10;;;;;;;;;32.75;28.50;;;;;11.61;75.92;100118.31;5059152;28;47339;-86
2021/12/24 19:35:36;;;;;;;;;31.75;30.00;;;;;11.65;75.54;100120.00;5071270;28;45334;-85
2021/12/24 19:38:02;;;;;;;;;36.00;31.00;;;;;11.69;75.92;100120.81;5070268;28;45608;-86
2021/12/24 19:40:32;;;;;;;;;34.25;32.25;;;;;11.75;75.58;100139.13;5066678;28;45484;-84
2021/12/24 19:43:00;;;;;;;;;35.25;29.75;;;;;11.76;75.60;100132.09;5067373;28;46622;-86
2021/12/24 19:45:27;;;;;;;;;38.00;32.25;;;;;11.74;75.42;100129.50;5067791;28;45406;-91
2021/12/24 19:47:53;;;;;;;;;31.25;30.25;;;;;11.75;75.83;100130.38;5051741;28;45393;-89
2021/12/24 19:50:20;;;;;;;;;29.50;28.50;;;;;11.84;75.41;100133.72;5070436;28;45149;-90
2021/12/24 19:52:46;;;;;;;;;39.00;33.00;;;;;11.76;75.49;100121.53;5048216;28;47330;-93
2021/12/24 19:55:13;;;;;;;;;36.25;34.50;;;;;11.78;75.43;100125.91;5057221;28;46233;-91
2021/12/24 19:57:41;;;;;;;;;39.50;32.00;;;;;11.85;74.91;100126.66;5071560;28;45473;-90
2021/12/24 20:00:11;;;;;;;;;40.25;35.75;;;;;11.86;75.43;100137.19;5070469;28;45430;-88
2021/12/24 20:02:37;;;;;;;;;49.00;37.75;;;;;11.83;75.22;100125.81;5057724;28;46990;-89
2021/12/24 20:05:03;;;;;;;;;42.00;36.50;;;;;11.76;75.06;100111.00;5045383;28;45445;-90
2021/12/24 20:07:28;;;;;;;;;36.25;33.50;;;;;11.76;75.14;100105.72;5075850;28;45445;-93
2021/12/24 20:09:54;;;;;;;;;36.25;34.50;;;;;11.86;75.44;100116.09;5067715;28;45577;-92
2021/12/24 20:12:19;;;;;;;;;39.00;35.25;;;;;11.85;75.55;100101.16;5058874;28;47907;-90
2021/12/24 20:14:45;;;;;;;;;40.50;36.50;;;;;11.84;75.36;100090.63;5057339;28;45366;-89
2021/12/24 20:17:10;;;;;;;;;42.50;35.00;;;;;11.88;75.37;100084.44;5049246;28;45524;-89
2021/12/24 20:19:36;;;;;;;;;41.50;35.25;;;;;11.87;75.07;100090.63;5061620;28;45699;-87
2021/12/24 20:22:01;;;;;;;;;37.50;35.00;;;;;11.89;75.31;100096.72;5067489;28;45308;-90
2021/12/24 20:24:26;;;;;;;;;43.50;36.00;;;;;11.87;75.09;100085.34;5053493;28;45538;-88
2021/12/24 20:26:56;;;;;;;;;42.50;34.75;;;;;11.88;75.31;100095.00;5059766;28;45682;-92
2021/12/24 20:29:22;;;;;;;;;46.50;36.25;;;;;11.94;75.17;100099.28;5048619;28;45693;-91
2021/12/24 20:31:47;;;;;;;;;48.50;40.00;;;;;11.96;74.74;100097.47;5060501;28;47324;-90
2021/12/24 20:34:13;;;;;;;;;30.25;30.00;;;;;11.89;75.10;100078.25;5054261;28;45585;-89
2021/12/24 20:36:39;;;;;;;;;39.50;34.00;;;;;11.95;74.83;100095.72;5055515;28;45470;-93
2021/12/24 20:39:04;;;;;;;;;50.50;38.75;;;;;11.97;74.80;100105.34;5058976;28;45446;-94
2021/12/24 20:41:30;;;;;;;;;46.25;39.00;;;;;12.00;75.00;100107.06;5058124;28;47114;-91
2021/12/24 20:43:55;;;;;;;;;40.25;35.50;;;;;11.97;74.76;100104.47;5065023;28;45405;-93
2021/12/24 20:46:21;;;;;;;;;34.75;32.75;;;;;11.94;74.62;100094.84;5045063;28;45335;-91
2021/12/24 20:48:47;;;;;;;;;42.50;35.00;;;;;11.96;74.86;100097.47;5065366;28;45447;-90
2021/12/24 20:51:12;;;;;;;;;31.00;27.00;;;;;11.91;74.79;100102.84;5044353;28;47506;-91
2021/12/24 20:53:40;;;;;;;;;39.50;31.75;;;;;11.88;74.94;100097.63;5066030;28;45343;-89
2021/12/24 20:56:06;;;;;;;;;49.00;38.25;;;;;11.89;74.53;100094.97;5060668;28;45420;-87
2021/12/24 20:58:32;;;;;;;;;40.50;34.50;;;;;11.83;74.76;100091.53;5063756;28;45685;-86
2021/12/24 21:01:04;;;;;;;;;38.25;35.25;;;;;11.82;74.76;100074.84;5057124;28;46867;-93
2021/12/24 21:03:30;;;;;;;;;34.00;33.00;;;;;11.82;74.80;100080.13;5049291;28;45806;-87
2021/12/24 21:05:55;;;;;;;;;32.75;31.50;;;;;11.83;74.75;100095.03;5068049;28;45402;-88
2021/12/24 21:08:22;;;;;;;;;44.50;36.00;;;;;11.83;74.73;100083.63;5050610;28;45443;-93
2021/12/24 21:10:48;;;;;;;;;37.75;35.75;;;;;11.80;74.64;100075.78;5066067;28;47535;-91
2021/12/24 21:13:17;;;;;;;;;45.00;38.50;;;;;11.76;74.52;100059.16;5048536;28;45386;-90
2021/12/24 21:15:45;;;;;;;;;37.75;35.25;;;;;11.86;74.78;100076.53;5050242;28;45398;-88
2021/12/24 21:18:11;;;;;;;;;37.50;33.00;;;;;11.84;74.55;100075.69;5049551;28;45731;-87
2021/12/24 21:20:37;;;;;;;;;38.25;35.50;;;;;11.81;74.92;100059.91;5070054;28;45381;-88
2021/12/24 21:23:05;;;;;;;;;72.25;56.00;;;;;11.89;74.73;100065.06;5056473;28;45435;-88
2021/12/24 21:25:31;;;;;;;;;69.25;53.75;;;;;11.86;74.58;100059.84;5060215;28;45407;-90
2021/12/24 21:27:57;;;;;;;;;37.25;32.75;;;;;11.88;74.65;100061.56;5081967;27;45489;-90
2021/12/24 21:30:23;;;;;;;;;34.00;32.00;;;;;11.87;74.66;100059.84;5079071;28;46114;-92
2021/12/24 21:33:03;;;;;;;;;33.50;30.75;;;;;11.86;74.38;100062.50;5048035;28;45287;-86
2021/12/24 21:35:29;;;;;;;;;29.75;25.25;;;;;11.76;74.45;100048.59;5056937;28;45556;-86
2021/12/24 21:37:57;;;;;;;;;34.00;33.00;;;;;11.84;74.49;100069.53;5051474;28;45435;-90
2021/12/24 21:40:30;;;;;;;;;35.00;30.25;;;;;11.79;74.56;100059.09;5049908;28;47734;-84
2021/12/24 21:42:57;;;;;;;;;33.75;29.50;;;;;11.78;74.40;100057.31;5065795;28;45473;-87
2021/12/24 21:45:32;;;;;;;;;36.00;31.25;;;;;11.82;74.39;100063.44;5050360;28;45442;-88
2021/12/24 21:48:06;;;;;;;;;42.00;33.00;;;;;11.77;74.33;100060.88;5064011;28;45422;-84
2021/12/24 21:50:34;;;;;;;;;46.25;37.50;;;;;11.77;74.07;100062.66;5068981;28;45535;-83
2021/12/24 21:53:09;;;;;;;;;31.50;30.50;;;;;11.78;74.23;100067.88;5047586;28;45380;-90
2021/12/24 21:55:37;;;;;;;;;37.00;34.25;;;;;11.76;74.32;100069.69;5054039;28;45513;-86
2021/12/24 21:58:03;;;;;;;;;37.00;33.00;;;;;11.80;74.27;100075.78;5047115;28;45735;-85
2021/12/24 22:00:37;;;;;;;;;40.00;34.00;;;;;11.73;74.60;100056.53;5048878;28;47319;-83
2021/12/24 22:03:11;;;;;;;;;37.00;31.50;;;;;11.71;74.35;100053.09;5047197;28;45328;-86
2021/12/24 22:08:25;;;;;;;;;40.00;34.50;;;;;11.82;74.36;100056.38;5067538;28;45186;-86
2021/12/24 22:11:41;;;;;;;;;36.50;34.00;;;;;11.82;74.35;100061.66;5047729;28;46482;-84
2021/12/24 22:14:10;;;;;;;;;36.00;32.00;;;;;11.76;74.31;100053.88;5041115;28;45406;-83
2021/12/24 22:16:39;;;;;;;;;34.75;31.00;;;;;11.76;74.72;100060.91;5054333;28;45461;-86
2021/12/24 22:19:14;;;;;;;;;28.75;28.50;;;;;11.79;74.56;100069.63;5059195;28;45859;-85
2021/12/24 22:21:54;;;;;;;;;32.50;28.75;;;;;11.77;74.53;100065.28;5078302;28;46462;-84
2021/12/24 22:24:39;;;;;;;;;33.50;30.50;;;;;11.71;74.39;100063.66;5053091;28;45460;-84
2021/12/24 22:27:08;;;;;;;;;28.50;28.50;;;;;11.70;74.53;100056.63;5052194;28;45806;-82
2021/12/24 22:29:37;;;;;;;;;27.00;25.50;;;;;11.69;74.45;100062.81;5062512;28;45572;-84
2021/12/24 22:32:03;;;;;;;;;32.25;28.00;;;;;11.68;74.56;100055.75;5073512;28;45570;-87
2021/12/24 22:34:29;;;;;;;;;31.75;30.00;;;;;11.72;74.57;100059.22;5061559;28;45417;-83
2021/12/24 22:36:54;;;;;;;;;33.75;30.00;;;;;11.77;74.73;100073.19;5048604;28;45455;-84
2021/12/24 22:39:23;;;;;;;;;29.50;29.00;;;;;11.75;74.69;100070.56;5070079;28;45287;-83
2021/12/24 22:41:48;;;;;;;;;29.25;27.25;;;;;11.76;74.69;100068.81;5052461;28;48129;-84
2021/12/24 22:44:21;;;;;;;;;25.75;25.00;;;;;11.75;74.47;100067.94;5067459;28;45410;-83
2021/12/24 22:46:46;;;;;;;;;33.25;30.00;;;;;11.79;74.56;100069.63;5066283;28;45425;-84
2021/12/24 22:49:12;;;;;;;;;28.50;26.25;;;;;11.79;74.53;100063.50;5046412;28;45811;-84
2021/12/24 22:54:26;;;;;;;;;24.25;23.25;;;;;11.73;74.56;100055.69;5069670;28;45413;-83
2021/12/24 22:56:56;;;;;;;;;33.50;30.50;;;;;11.78;74.64;100065.25;5050038;28;45506;-84
2021/12/24 22:59:22;;;;;;;;;35.50;31.50;;;;;11.76;74.75;100053.88;5050400;28;45509;-84
2021/12/24 23:01:49;;;;;;;;;31.25;29.50;;;;;11.82;74.71;100066.94;5064461;28;45978;-82
2021/12/24 23:04:15;;;;;;;;;24.50;23.25;;;;;11.76;74.36;100056.53;5042152;28;45521;-82
2021/12/24 23:06:43;;;;;;;;;30.00;27.00;;;;;11.81;74.28;100059.03;5069738;28;45629;-86
2021/12/24 23:09:09;;;;;;;;;25.25;25.00;;;;;11.79;74.71;100056.44;5045691;28;45514;-83
2021/12/24 23:11:35;;;;;;;;;26.00;26.00;;;;;11.76;74.56;100056.53;5050158;28;47189;-84
2021/12/24 23:14:00;;;;;;;;;26.75;23.75;;;;;11.78;74.67;100067.00;5065849;28;44830;-85
2021/12/24 23:16:27;;;;;;;;;27.75;25.50;;;;;11.74;74.78;100066.22;5055797;28;45475;-84
2021/12/24 23:19:01;;;;;;;;;69.00;52.75;;;;;11.76;74.71;100066.16;5069858;28;45454;-85
2021/12/24 23:21:33;;;;;;;;;61.50;49.25;;;;;11.80;74.83;100079.28;5065898;28;45720;-85
2021/12/24 23:24:04;;;;;;;;;31.50;28.50;;;;;11.84;74.74;100073.06;5066755;28;45639;-81
2021/12/24 23:26:33;;;;;;;;;21.75;19.25;;;;;11.80;74.66;100071.38;5077883;28;45528;-85
2021/12/24 23:29:02;;;;;;;;;25.00;22.50;;;;;11.87;74.61;100074.78;5065649;28;45862;-84
2021/12/24 23:31:27;;;;;;;;;24.00;24.00;;;;;11.83;74.67;100059.88;5058807;28;46892;-81
2021/12/24 23:33:56;;;;;;;;;27.50;26.00;;;;;11.88;74.67;100058.91;5065157;28;45642;-82
2021/12/24 23:36:21;;;;;;;;;32.75;27.75;;;;;11.83;74.51;100052.84;5058777;28;44779;-84
2021/12/24 23:38:47;;;;;;;;;28.75;28.50;;;;;11.90;74.60;100064.19;5060875;28;45548;-83
2021/12/24 23:41:13;;;;;;;;;25.50;24.00;;;;;11.91;74.59;100069.41;5067066;28;46613;-84
2021/12/24 23:43:47;;;;;;;;;22.75;22.00;;;;;11.87;74.66;100062.47;5073305;28;44852;-83
2021/12/24 23:48:50;;;;;;;;;25.25;24.00;;;;;11.87;74.65;100057.19;5068945;28;45489;-83
2021/12/24 23:51:16;;;;;;;;;26.00;25.75;;;;;11.81;74.46;100053.75;5058771;28;45754;-83
2021/12/24 23:53:44;;;;;;;;;25.50;23.00;;;;;11.83;74.45;100058.09;5064874;28;45534;-83
2021/12/24 23:56:11;;;;;;;;;22.25;19.00;;;;;11.82;74.54;100056.38;5057639;28;45505;-83
2021/12/24 23:58:41;;;;;;;;;24.75;21.00;;;;;11.83;74.45;100057.25;5068992;28;45762;-83
